Time;durP1;ratioP1;P1;durP2;ratioP2;P2;SDS_P1;SDS_P2;PMS_P1;PMS_P2;Temp;Humidity;BMP_temperature;BMP_pressure;BME280_temperature;BME280_humidity;BME280_pressure;Samples;Min_cycle;Max_cycle;Signal;HPM_P1;HPM_P2
2021/07/25 00:01:06;;;;;;;15.55;9.52;;;;;;;19.10;84.66;99776.31;20984044;28;20048;-72
2021/07/25 00:11:09;;;;;;;14.02;9.18;;;;;;;18.85;85.31;99769.84;20999155;28;20064;-71
2021/07/25 00:21:11;;;;;;;13.93;8.73;;;;;;;18.68;85.22;99762.91;20981819;28;20490;-72
2021/07/25 00:31:12;;;;;;;14.43;8.00;;;;;;;18.75;84.59;99767.84;20999034;28;20692;-72
2021/07/25 00:41:16;;;;;;;11.57;8.23;;;;;;;18.65;84.49;99757.75;20998532;28;20044;-72
2021/07/25 00:51:18;;;;;;;11.68;8.30;;;;;;;18.57;84.88;99769.75;20995483;28;20048;-72
2021/07/25 01:01:23;;;;;;;11.40;8.05;;;;;;;18.60;84.63;99759.81;20994661;28;20429;-72
2021/07/25 01:11:38;;;;;;;14.02;8.70;;;;;;;18.63;84.63;99749.00;20976862;28;20562;-72
2021/07/25 01:21:40;;;;;;;14.03;8.10;;;;;;;18.68;84.03;99757.59;20976617;28;20053;-72
2021/07/25 01:31:43;;;;;;;13.00;7.53;;;;;;;18.77;84.26;99763.28;20992605;28;20041;-73
2021/07/25 01:41:44;;;;;;;13.40;7.93;;;;;;;18.84;83.42;99762.00;20993732;28;20106;-73
2021/07/25 01:51:46;;;;;;;12.68;8.00;;;;;;;18.84;83.34;99756.69;20992521;28;20101;-73
2021/07/25 02:01:48;;;;;;;13.32;7.68;;;;;;;18.96;83.27;99767.38;20991009;28;20041;-72
2021/07/25 02:11:50;;;;;;;10.63;7.05;;;;;;;19.03;83.23;99775.84;20991115;28;20132;-74
2021/07/25 02:21:52;;;;;;;11.10;6.70;;;;;;;19.02;83.14;99773.28;20969744;28;20456;-73
2021/07/25 02:31:54;;;;;;;10.98;7.40;;;;;;;19.06;83.29;99783.59;20987356;28;20074;-73
2021/07/25 02:41:56;;;;;;;12.70;7.40;;;;;;;19.09;83.41;99788.75;20986556;28;20129;-72
2021/07/25 02:52:02;;;;;;;11.68;7.18;;;;;;;19.20;83.14;99786.28;20986078;28;20045;-72
2021/07/25 03:02:03;;;;;;;12.13;7.07;;;;;;;19.04;83.44;99782.84;20983713;28;20045;-73
2021/07/25 03:12:06;;;;;;;11.98;6.25;;;;;;;19.00;83.50;99778.69;20984571;28;20057;-72
2021/07/25 03:22:09;;;;;;;10.75;7.57;;;;;;;18.90;83.58;99772.22;20984517;28;20044;-72
2021/07/25 03:32:12;;;;;;;13.07;7.50;;;;;;;18.54;85.12;99776.09;20982709;28;20040;-72
2021/07/25 03:42:15;;;;;;;12.80;8.10;;;;;;;18.16;86.52;99787.09;20982545;28;20052;-72
2021/07/25 03:52:17;;;;;;;12.63;8.13;;;;;;;18.09;86.68;99790.19;20982898;28;20045;-72
2021/07/25 04:02:19;;;;;;;13.63;8.50;;;;;;;18.09;86.22;99796.31;20981911;28;20462;-72
2021/07/25 04:12:22;;;;;;;14.05;9.15;;;;;;;18.04;86.32;99798.38;20981397;28;20048;-73
2021/07/25 04:22:25;;;;;;;13.43;8.38;;;;;;;18.11;85.79;99793.56;20981912;28;20045;-71
2021/07/25 04:32:27;;;;;;;15.52;9.50;;;;;;;18.14;85.54;99809.31;20980525;28;20063;-72
2021/07/25 04:42:34;;;;;;;15.35;8.93;;;;;;;18.33;84.35;99803.81;20980633;28;20094;-73
2021/07/25 04:52:40;;;;;;;12.98;8.15;;;;;;;18.78;83.11;99818.03;20985796;28;20639;-72
2021/07/25 05:02:43;;;;;;;14.05;8.15;;;;;;;18.72;83.79;99813.94;20993950;28;20117;-72
2021/07/25 05:12:51;;;;;;;13.23;8.33;;;;;;;18.80;83.35;99824.13;20993644;28;20460;-73
2021/07/25 05:23:03;;;;;;;13.25;8.98;;;;;;;18.91;82.65;99833.13;20993118;28;20631;-73
2021/07/25 05:33:07;;;;;;;11.85;7.53;;;;;;;19.31;82.04;99830.75;21007926;28;20706;-72
2021/07/25 05:43:10;;;;;;;15.47;8.50;;;;;;;19.57;80.98;99831.81;20992085;28;20045;-72
2021/07/25 05:53:12;;;;;;;14.43;7.93;;;;;;;19.69;80.42;99833.75;20990698;28;20078;-72
2021/07/25 06:03:13;;;;;;;14.10;9.13;;;;;;;19.81;80.89;99833.91;20989485;28;20105;-72
2021/07/25 06:13:15;;;;;;;10.40;7.55;;;;;;;20.02;80.56;99837.84;20990014;28;20536;-71
2021/07/25 06:23:17;;;;;;;8.93;6.20;;;;;;;20.38;78.53;99837.31;20990268;28;20430;-70
2021/07/25 06:33:19;;;;;;;11.88;6.10;;;;;;;20.53;77.29;99830.16;20988699;28;20041;-70
2021/07/25 06:43:23;;;;;;;9.07;5.20;;;;;;;20.91;75.12;99840.06;20971446;28;20045;-71
2021/07/25 06:53:26;;;;;;;9.27;5.40;;;;;;;21.26;72.95;99832.31;20987107;28;20045;-71
2021/07/25 07:03:28;;;;;;;7.35;4.97;;;;;;;21.77;70.45;99832.31;20986278;28;20068;-71
2021/07/25 07:13:30;;;;;;;7.68;4.85;;;;;;;22.02;70.05;99816.25;20924608;28;20282;-71
2021/07/25 07:23:32;;;;;;;7.63;4.38;;;;;;;22.12;68.19;99820.97;20933051;28;20490;-72
2021/07/25 07:33:34;;;;;;;9.15;4.82;;;;;;;22.63;67.16;99821.59;20993526;28;20050;-70
2021/07/25 07:43:36;;;;;;;7.47;4.05;;;;;;;22.72;63.57;99820.06;20965244;28;20091;-70
2021/07/25 07:53:39;;;;;;;9.55;4.30;;;;;;;22.56;64.38;99825.69;20981126;28;20128;-73
2021/07/25 08:03:40;;;;;;;7.40;4.43;;;;;;;22.30;66.74;99824.97;20966922;28;20074;-73
2021/07/25 08:13:48;;;;;;;7.07;4.13;;;;;;;23.13;63.55;99803.56;20988345;28;20452;-73
2021/07/25 08:23:49;;;;;;;8.77;4.10;;;;;;;22.64;64.57;99817.97;20971778;28;20083;-72
2021/07/25 08:33:51;;;;;;;6.57;3.75;;;;;;;23.10;64.65;99809.16;20985744;28;20098;-73
2021/07/25 08:44:14;;;;;;;11.23;4.18;;;;;;;24.08;57.92;99801.41;21001199;28;20059;-73
2021/07/25 08:54:18;;;;;;;7.70;3.92;;;;;;;24.44;58.36;99802.09;20981528;28;20052;-73
2021/07/25 09:04:20;;;;;;;7.20;3.80;;;;;;;23.66;59.57;99806.56;20981100;28;20392;-73
2021/07/25 09:14:22;;;;;;;7.88;4.18;;;;;;;23.47;60.36;99803.59;20959682;28;20052;-74
2021/07/25 09:24:34;;;;;;;6.57;3.60;;;;;;;23.61;60.48;99814.06;20913908;28;20099;-73
2021/07/25 09:34:38;;;;;;;5.82;3.80;;;;;;;24.21;57.03;99802.09;20910355;28;20072;-73
2021/07/25 09:44:50;;;;;;;7.85;3.90;;;;;;;24.23;56.68;99802.81;20911576;28;20041;-74
2021/07/25 09:54:53;;;;;;;7.72;3.88;;;;;;;24.33;57.62;99806.44;20909586;28;20045;-73
2021/07/25 10:05:18;;;;;;;6.47;3.70;;;;;;;25.45;53.83;99801.53;20909877;28;20049;-73
2021/07/25 10:15:20;;;;;;;5.45;3.40;;;;;;;24.78;55.18;99806.31;20956016;28;20092;-73
2021/07/25 10:25:23;;;;;;;7.88;4.85;;;;;;;25.49;54.62;99805.66;20972438;28;20044;-74
2021/07/25 10:35:26;;;;;;;6.67;3.37;;;;;;;26.07;49.91;99789.78;20971709;28;20052;-73
2021/07/25 10:45:27;;;;;;;6.95;3.08;;;;;;;26.57;48.86;99787.03;20988947;28;20052;-74
2021/07/25 10:55:35;;;;;;;5.97;3.55;;;;;;;27.66;46.61;99771.38;20968165;28;20056;-74
2021/07/25 11:06:17;;;;;;;4.65;2.53;;;;;;;27.24;46.14;99764.59;20969645;28;20448;-73
2021/07/25 11:16:31;;;;;;;4.88;2.80;;;;;;;27.59;45.70;99765.72;20931999;28;20052;-73
2021/07/25 11:26:36;;;;;;;4.03;2.22;;;;;;;27.20;44.46;99755.13;20901853;28;20049;-73
2021/07/25 11:36:38;;;;;;;6.55;2.60;;;;;;;26.68;45.96;99757.31;20902101;28;20067;-74
2021/07/25 11:46:47;;;;;;;7.03;3.08;;;;;;;26.59;46.23;99752.84;20901975;28;20072;-72
2021/07/25 11:57:07;;;;;;;8.93;3.42;;;;;;;27.16;43.25;99740.28;20901993;28;20447;-73
2021/07/25 12:07:17;;;;;;;5.25;2.28;;;;;;;27.39;40.82;99730.03;20899137;28;20099;-74
2021/07/25 12:17:38;;;;;;;6.18;3.30;;;;;;;27.40;43.22;99720.09;20964501;28;20481;-74
2021/07/25 12:27:39;;;;;;;7.57;3.20;;;;;;;27.43;42.76;99717.97;20982739;28;20044;-73
2021/07/25 12:37:45;;;;;;;5.95;2.78;;;;;;;27.57;40.64;99703.19;20980275;28;20476;-73
2021/07/25 12:47:47;;;;;;;6.93;2.67;;;;;;;27.03;41.47;99702.13;20980802;28;20045;-73
2021/07/25 12:57:48;;;;;;;5.63;2.60;;;;;;;27.09;42.26;99690.81;20982095;28;20087;-74
2021/07/25 13:07:50;;;;;;;6.15;2.90;;;;;;;27.33;40.82;99677.69;20981429;28;20599;-72
2021/07/25 13:17:52;;;;;;;7.38;4.18;;;;;;;27.78;41.75;99678.75;20992631;28;20073;-72
2021/07/25 13:27:54;;;;;;;4.55;2.78;;;;;;;27.50;41.33;99677.88;20996955;28;20056;-73
2021/07/25 13:37:56;;;;;;;7.47;3.63;;;;;;;27.46;43.74;99682.75;20993885;28;20045;-72
2021/07/25 13:47:57;;;;;;;7.25;3.22;;;;;;;27.41;44.25;99700.31;20994795;28;20056;-72
2021/07/25 13:58:04;;;;;;;6.20;3.58;;;;;;;27.78;42.45;99709.16;20994270;28;20591;-72
2021/07/25 14:08:06;;;;;;;5.30;3.28;;;;;;;27.36;44.66;99703.44;20993829;28;20548;-73
2021/07/25 14:18:08;;;;;;;6.97;3.65;;;;;;;27.01;45.66;99704.09;20996853;28;20552;-72
2021/07/25 14:28:11;;;;;;;6.65;3.33;;;;;;;27.45;44.84;99707.06;20991821;28;20106;-72
2021/07/25 14:38:13;;;;;;;;;;;;;;;28.12;43.52;99690.53;20992115;28;20494;-72
2021/07/25 14:48:14;;;;;;;6.35;3.53;;;;;;;27.95;43.14;99671.69;20991298;28;19943;-72
2021/07/25 14:58:16;;;;;;;6.35;3.90;;;;;;;28.40;43.00;99668.06;20990521;28;20071;-72
2021/07/25 15:08:17;;;;;;;6.20;3.17;;;;;;;27.98;42.38;99671.38;20989685;28;20079;-72
2021/07/25 15:18:21;;;;;;;5.53;3.05;;;;;;;27.96;42.56;99668.00;20915434;28;20395;-72
2021/07/25 15:28:23;;;;;;;5.30;3.20;;;;;;;28.06;43.41;99668.75;20902633;28;20105;-71
2021/07/25 15:38:25;;;;;;;5.65;3.15;;;;;;;28.11;42.32;99661.06;20901375;28;20414;-71
2021/07/25 15:48:28;;;;;;;4.45;2.95;;;;;;;28.38;42.66;99638.63;20902032;28;20052;-73
2021/07/25 15:58:30;;;;;;;7.00;3.10;;;;;;;28.45;42.38;99631.59;20946988;28;20126;-71
2021/07/25 16:08:34;;;;;;;5.88;3.35;;;;;;;29.19;41.00;99632.03;20931210;28;20045;-71
2021/07/25 16:18:37;;;;;;;4.88;2.85;;;;;;;29.27;38.03;99630.19;20974754;28;20048;-71
2021/07/25 16:28:40;;;;;;;5.85;3.13;;;;;;;28.79;38.35;99634.31;20980618;28;20072;-72
2021/07/25 16:38:41;;;;;;;4.40;2.20;;;;;;;28.54;37.47;99638.72;20901154;28;20088;-71
2021/07/25 16:48:44;;;;;;;6.95;2.90;;;;;;;28.30;39.02;99647.44;20935846;28;20106;-71
2021/07/25 16:58:46;;;;;;;5.85;2.47;;;;;;;27.54;41.44;99652.38;20975407;28;20049;-72
2021/07/25 17:08:48;;;;;;;4.43;2.38;;;;;;;28.17;40.77;99652.41;20940763;28;20395;-72
2021/07/25 17:18:51;;;;;;;5.27;2.90;;;;;;;27.01;43.26;99671.88;20901053;28;20048;-71
2021/07/25 17:28:52;;;;;;;5.30;2.50;;;;;;;26.38;43.47;99679.63;20911168;28;20041;-73
2021/07/25 17:38:58;;;;;;;6.95;3.08;;;;;;;26.09;47.13;99704.63;20911560;28;21026;-72
2021/07/25 17:48:59;;;;;;;4.90;2.72;;;;;;;26.00;48.20;99697.41;20912939;28;20053;-72
2021/07/25 17:59:03;;;;;;;4.70;2.75;;;;;;;25.50;49.23;99705.47;20911163;28;20099;-72
2021/07/25 18:09:06;;;;;;;7.63;2.90;;;;;;;25.37;50.36;99704.88;20940726;28;20078;-73
2021/07/25 18:19:08;;;;;;;8.43;3.22;;;;;;;25.32;51.42;99716.84;20916003;28;20049;-72
2021/07/25 18:29:09;;;;;;;7.50;3.13;;;;;;;25.19;51.78;99708.16;20896456;28;20056;-72
2021/07/25 18:39:11;;;;;;;5.00;2.80;;;;;;;24.86;54.06;99717.28;20984214;28;20510;-72
2021/07/25 18:49:13;;;;;;;6.35;3.10;;;;;;;24.56;55.56;99715.38;20993506;28;20044;-72
2021/07/25 18:59:14;;;;;;;5.30;3.28;;;;;;;24.30;56.31;99726.44;20989141;28;20040;-72
2021/07/25 19:09:27;;;;;;;6.82;3.08;;;;;;;24.12;57.36;99748.53;21022228;28;20041;-72
2021/07/25 19:19:32;;;;;;;5.65;3.40;;;;;;;23.98;58.10;99755.00;20906977;28;20197;-71
2021/07/25 19:29:34;;;;;;;7.10;3.20;;;;;;;23.75;58.21;99764.88;20904074;28;20049;-72
2021/07/25 19:39:36;;;;;;;7.05;3.63;;;;;;;23.53;60.10;99765.72;20901804;28;20178;-72
2021/07/25 19:49:37;;;;;;;7.00;3.70;;;;;;;23.26;61.52;99787.44;20901881;28;20053;-72
2021/07/25 19:59:39;;;;;;;6.65;3.75;;;;;;;22.89;62.81;99784.09;20882458;28;20056;-72
2021/07/25 20:09:42;;;;;;;9.48;3.83;;;;;;;22.60;63.90;99805.81;20940262;28;20128;-72
2021/07/25 20:19:44;;;;;;;7.53;3.97;;;;;;;22.42;64.38;99807.19;20965742;28;20049;-72
2021/07/25 20:29:46;;;;;;;5.95;3.90;;;;;;;22.25;65.18;99822.63;20998536;28;20110;-73
2021/07/25 20:39:48;;;;;;;6.55;3.30;;;;;;;22.10;65.73;99838.88;20836057;22;20454;-70
2021/07/25 20:49:50;;;;;;;7.85;3.88;;;;;;;21.83;67.33;99849.69;20750998;28;20431;-71
2021/07/25 20:59:52;;;;;;;5.95;3.55;;;;;;;21.68;67.46;99855.13;20748837;28;20080;-73
2021/07/25 21:09:54;;;;;;;6.97;4.05;;;;;;;21.61;68.54;99869.88;20789870;28;20525;-70
2021/07/25 21:19:57;;;;;;;7.07;4.05;;;;;;;21.44;69.27;99872.84;20750626;28;20096;-71
2021/07/25 21:29:59;;;;;;;7.60;4.18;;;;;;;21.35;69.43;99892.13;20749454;28;20057;-71
2021/07/25 21:40:01;;;;;;;8.73;3.88;;;;;;;21.17;70.56;99891.50;20746750;28;20045;-71
2021/07/25 21:50:03;;;;;;;7.53;4.22;;;;;;;20.94;71.28;99901.06;20748477;28;20495;-71
2021/07/25 22:00:07;;;;;;;8.13;4.57;;;;;;;20.72;72.16;99896.31;20746948;28;20050;-71
2021/07/25 22:10:10;;;;;;;5.90;4.00;;;;;;;20.70;72.41;99893.75;20681559;28;20481;-70
2021/07/25 22:20:12;;;;;;;6.93;4.05;;;;;;;20.58;72.99;99889.22;20662682;28;20050;-70
2021/07/25 22:30:14;;;;;;;7.20;4.50;;;;;;;20.49;73.40;99884.50;20662565;28;20061;-70
2021/07/25 22:40:16;;;;;;;7.63;4.20;;;;;;;20.38;73.63;99886.97;20662371;28;20463;-70
2021/07/25 22:50:18;;;;;;;10.13;4.40;;;;;;;20.34;74.15;99891.63;20661356;28;20109;-70
2021/07/25 23:00:20;;;;;;;7.38;4.18;;;;;;;20.37;74.50;99880.81;20660087;28;20198;-70
2021/07/25 23:10:22;;;;;;;7.85;4.18;;;;;;;20.28;74.67;99885.88;20659731;28;20054;-72
2021/07/25 23:20:24;;;;;;;9.35;4.13;;;;;;;20.09;75.43;99886.19;20659462;28;20116;-71
2021/07/25 23:30:26;;;;;;;7.30;4.25;;;;;;;19.95;75.80;99881.72;20658135;28;20063;-71
2021/07/25 23:40:28;;;;;;;6.78;4.03;;;;;;;19.98;75.41;99863.78;20658367;28;20104;-70
2021/07/25 23:50:30;;;;;;;6.65;3.72;;;;;;;20.08;74.86;99858.75;20657426;28;20054;-70
